createdAt,value
2022-11-23T00:00:26.558Z,19.55
2022-11-23T00:02:58.008Z,14.07
2022-11-23T00:05:26.727Z,14.10
2022-11-23T00:07:54.107Z,16.35
2022-11-23T00:12:49.316Z,17.02
2022-11-23T00:15:16.860Z,15.52
2022-11-23T00:17:44.254Z,10.43
2022-11-23T00:22:38.926Z,14.23
2022-11-23T00:27:34.082Z,14.20
2022-11-23T00:30:01.581Z,14.75
2022-11-23T00:34:59.571Z,14.25
2022-11-23T00:39:55.441Z,12.13
2022-11-23T00:49:44.459Z,17.30
2022-11-23T00:54:39.400Z,11.30
2022-11-23T00:57:07.703Z,13.77
2022-11-23T00:59:35.168Z,12.48
2022-11-23T01:04:30.316Z,10.63
2022-11-23T01:07:00.265Z,12.27
2022-11-23T01:09:27.711Z,13.60
2022-11-23T01:11:55.441Z,10.48
2022-11-23T01:14:25.133Z,12.45
2022-11-23T01:16:52.560Z,10.75
2022-11-23T01:21:50.372Z,13.18
2022-11-23T01:24:23.006Z,13.88
2022-11-23T01:26:55.159Z,9.57
2022-11-23T01:29:23.818Z,10.18
2022-11-23T01:31:51.251Z,17.42
2022-11-23T01:36:46.185Z,10.80
2022-11-23T01:39:14.457Z,15.45
2022-11-23T01:41:44.572Z,11.57
2022-11-23T01:44:33.772Z,9.63
2022-11-23T01:47:04.125Z,10.93
2022-11-23T01:49:39.474Z,11.85
2022-11-23T01:52:17.595Z,12.07
2022-11-23T01:54:50.289Z,13.27
2022-11-23T01:57:21.818Z,13.15
2022-11-23T01:59:49.938Z,12.18
2022-11-23T02:02:18.296Z,10.18
2022-11-23T02:04:48.148Z,8.45
2022-11-23T02:07:17.434Z,8.20
2022-11-23T02:09:46.927Z,11.13
2022-11-23T02:12:14.945Z,12.43
2022-11-23T02:14:44.956Z,8.95
2022-11-23T02:17:12.934Z,9.18
2022-11-23T02:19:50.518Z,6.72
2022-11-23T02:22:29.538Z,6.47
2022-11-23T02:25:01.266Z,5.75
2022-11-23T02:27:29.550Z,8.20
2022-11-23T02:30:00.905Z,7.43
2022-11-23T02:32:29.654Z,12.07
2022-11-23T02:34:56.993Z,6.47
2022-11-23T02:39:54.733Z,4.53
2022-11-23T02:42:24.166Z,3.85
2022-11-23T02:44:54.399Z,4.93
2022-11-23T02:47:22.061Z,7.13
2022-11-23T02:49:49.734Z,3.38
2022-11-23T02:52:18.717Z,3.67
2022-11-23T02:54:46.917Z,5.85
2022-11-23T02:57:14.915Z,3.08
2022-11-23T02:59:46.337Z,2.78
2022-11-23T03:02:13.945Z,4.50
2022-11-23T03:04:41.349Z,6.30
2022-11-23T03:09:36.445Z,4.50
2022-11-23T03:12:04.361Z,4.30
2022-11-23T03:14:31.742Z,5.13
2022-11-23T03:17:00.534Z,5.15
2022-11-23T03:19:31.542Z,3.70
2022-11-23T03:21:59.406Z,5.10
2022-11-23T03:24:30.811Z,5.57
2022-11-23T03:26:58.778Z,6.03
2022-11-23T03:31:55.976Z,3.65
2022-11-23T03:34:23.820Z,5.10
2022-11-23T03:36:52.221Z,2.65
2022-11-23T03:39:20.849Z,2.55
2022-11-23T03:41:51.556Z,2.67
2022-11-23T03:44:21.439Z,1.45
2022-11-23T03:46:50.682Z,2.67
2022-11-23T03:49:18.229Z,3.22
2022-11-23T03:51:45.890Z,2.75
2022-11-23T03:54:14.602Z,2.38
2022-11-23T03:59:09.391Z,1.52
2022-11-23T04:01:38.519Z,2.80
2022-11-23T04:04:10.069Z,2.35
2022-11-23T04:06:52.331Z,2.13
2022-11-23T04:09:24.234Z,4.20
2022-11-23T04:12:11.389Z,3.15
2022-11-23T04:14:41.008Z,1.98
2022-11-23T04:19:35.786Z,3.63
2022-11-23T04:22:03.268Z,3.20
2022-11-23T04:24:36.434Z,2.10
2022-11-23T04:27:05.781Z,2.25
2022-11-23T04:29:33.986Z,2.60
2022-11-23T04:32:02.240Z,1.77
2022-11-23T04:34:29.647Z,2.03
2022-11-23T04:39:32.644Z,1.70
2022-11-23T04:42:23.520Z,2.78
2022-11-23T04:44:58.234Z,2.85
2022-11-23T04:47:25.889Z,3.55
2022-11-23T04:49:54.459Z,3.58
2022-11-23T04:52:22.107Z,3.13
2022-11-23T04:54:51.321Z,2.35
2022-11-23T04:57:18.895Z,3.67
2022-11-23T04:59:48.353Z,4.38
2022-11-23T05:02:16.516Z,3.03
2022-11-23T05:04:43.828Z,3.47
2022-11-23T05:07:12.670Z,2.80
2022-11-23T05:09:41.718Z,2.97
2022-11-23T05:12:19.734Z,2.97
2022-11-23T05:17:19.604Z,2.22
2022-11-23T05:19:48.663Z,2.70
2022-11-23T05:22:16.242Z,2.50
2022-11-23T05:24:44.248Z,4.45
2022-11-23T05:27:17.007Z,2.72
2022-11-23T05:29:45.470Z,6.45
2022-11-23T05:34:40.337Z,2.92
2022-11-23T05:37:10.133Z,6.55
2022-11-23T05:39:43.655Z,8.38
2022-11-23T05:44:41.869Z,4.63
2022-11-23T05:47:15.508Z,6.13
2022-11-23T05:49:43.043Z,8.32
2022-11-23T05:52:11.214Z,9.30
2022-11-23T05:54:40.177Z,8.02
2022-11-23T05:57:15.847Z,11.80
2022-11-23T05:59:45.260Z,17.05
2022-11-23T06:02:18.516Z,15.43
2022-11-23T06:04:48.055Z,11.38
2022-11-23T06:07:19.380Z,10.05
2022-11-23T06:10:05.013Z,14.57
2022-11-23T06:12:34.536Z,11.38
2022-11-23T06:15:03.842Z,12.27
2022-11-23T06:17:31.940Z,21.20
2022-11-23T06:20:05.690Z,14.57
2022-11-23T06:22:35.192Z,16.75
2022-11-23T06:25:05.965Z,15.05
2022-11-23T06:28:05.799Z,13.25
2022-11-23T06:30:43.574Z,13.13
2022-11-23T06:33:11.297Z,7.28
2022-11-23T06:35:54.911Z,12.70
2022-11-23T06:38:23.932Z,18.42
2022-11-23T06:41:00.628Z,10.80
2022-11-23T06:43:30.216Z,15.82
2022-11-23T06:45:58.588Z,15.63
2022-11-23T06:48:29.469Z,18.67
2022-11-23T06:51:00.341Z,17.02
2022-11-23T06:53:30.082Z,13.05
2022-11-23T06:56:02.903Z,12.88
2022-11-23T06:58:32.509Z,11.23
2022-11-23T07:01:03.797Z,17.08
2022-11-23T07:03:37.220Z,11.20
2022-11-23T07:06:14.021Z,11.85
2022-11-23T07:08:44.119Z,9.73
2022-11-23T07:11:28.861Z,14.73
2022-11-23T07:13:56.280Z,13.38
2022-11-23T07:16:27.805Z,12.38
2022-11-23T07:18:55.466Z,16.20
2022-11-23T07:23:50.746Z,12.15
2022-11-23T07:26:18.361Z,15.00
2022-11-23T07:28:46.057Z,14.27
2022-11-23T07:31:16.165Z,10.60
2022-11-23T07:33:45.413Z,14.30
2022-11-23T07:36:13.287Z,14.82
2022-11-23T07:38:42.621Z,12.63
2022-11-23T07:41:11.742Z,14.32
2022-11-23T07:44:02.779Z,14.40
2022-11-23T07:46:30.297Z,16.02
2022-11-23T07:49:01.957Z,10.50
2022-11-23T07:51:30.115Z,13.73
2022-11-23T07:53:57.776Z,9.68
2022-11-23T07:56:25.501Z,12.20
2022-11-23T07:58:53.014Z,12.63
2022-11-23T08:01:20.838Z,12.25
2022-11-23T08:03:48.901Z,12.82
2022-11-23T08:06:17.471Z,10.73
2022-11-23T08:08:45.512Z,15.00
2022-11-23T08:11:18.432Z,10.93
2022-11-23T08:13:46.207Z,7.38
2022-11-23T08:16:13.735Z,11.63
2022-11-23T08:18:41.231Z,9.65
2022-11-23T08:21:08.635Z,6.97
2022-11-23T08:26:07.816Z,9.95
2022-11-23T08:28:40.138Z,8.18
2022-11-23T08:31:09.113Z,8.60
2022-11-23T08:33:36.725Z,5.60
2022-11-23T08:36:09.080Z,10.55
2022-11-23T08:38:37.076Z,9.63
2022-11-23T08:41:05.654Z,9.32
2022-11-23T08:43:34.956Z,12.05
2022-11-23T08:46:06.732Z,13.73
2022-11-23T08:48:37.045Z,15.30
2022-11-23T08:51:05.041Z,15.45
2022-11-23T08:53:32.577Z,11.15
2022-11-23T08:56:05.767Z,11.23
2022-11-23T08:58:33.377Z,8.32
2022-11-23T09:01:00.937Z,9.98
2022-11-23T09:03:28.417Z,10.35
2022-11-23T09:05:59.741Z,12.13
2022-11-23T09:08:27.716Z,7.75
2022-11-23T09:10:55.278Z,9.45
2022-11-23T09:13:22.740Z,15.45
2022-11-23T09:15:50.265Z,12.48
2022-11-23T09:18:17.710Z,14.55
2022-11-23T09:23:14.488Z,17.48
2022-11-23T09:25:43.528Z,14.77
2022-11-23T09:28:12.806Z,12.25
2022-11-23T09:30:40.627Z,11.07
2022-11-23T09:33:09.463Z,18.45
2022-11-23T09:35:42.379Z,14.90
2022-11-23T09:38:11.407Z,12.82
2022-11-23T09:40:40.772Z,17.25
2022-11-23T09:43:23.373Z,13.55
2022-11-23T09:45:54.445Z,17.67
2022-11-23T09:48:35.734Z,14.80
2022-11-23T09:51:03.259Z,13.68
2022-11-23T09:53:40.592Z,16.77
2022-11-23T09:56:20.426Z,15.70
2022-11-23T09:58:52.565Z,16.40
2022-11-23T10:01:21.372Z,20.38
2022-11-23T10:03:49.875Z,15.45
2022-11-23T10:06:18.788Z,20.33
2022-11-23T10:09:05.401Z,18.10
2022-11-23T10:12:10.013Z,14.38
2022-11-23T10:14:55.754Z,19.90
2022-11-23T10:17:41.066Z,19.63
2022-11-23T10:20:39.783Z,24.80
2022-11-23T10:23:36.941Z,19.02
2022-11-23T10:26:04.441Z,21.50
2022-11-23T10:28:32.469Z,19.95
2022-11-23T10:31:15.746Z,19.40
2022-11-23T10:33:55.488Z,19.08
2022-11-23T10:36:23.098Z,20.70
2022-11-23T10:39:02.130Z,16.52
2022-11-23T10:41:31.029Z,16.35
2022-11-23T10:44:05.995Z,17.00
2022-11-23T10:46:37.409Z,18.92
2022-11-23T10:49:33.279Z,17.05
2022-11-23T10:52:03.900Z,18.02
2022-11-23T10:54:56.279Z,19.38
2022-11-23T10:57:32.961Z,18.33
2022-11-23T11:00:05.675Z,17.92
2022-11-23T11:02:42.036Z,16.35
2022-11-23T11:08:25.028Z,18.60
2022-11-23T11:11:00.124Z,20.38
2022-11-23T11:13:30.000Z,19.27
2022-11-23T11:15:57.411Z,19.88
2022-11-23T11:18:34.152Z,22.85
2022-11-23T11:21:08.005Z,24.38
2022-11-23T11:23:44.399Z,18.67
2022-11-23T11:26:31.241Z,19.20
2022-11-23T11:31:58.816Z,22.20
2022-11-23T11:34:53.452Z,17.90
2022-11-23T11:37:37.224Z,17.63
2022-11-23T11:40:30.110Z,25.63
2022-11-23T11:43:11.375Z,18.40
2022-11-23T11:45:59.729Z,17.30
2022-11-23T11:48:39.678Z,19.05
2022-11-23T11:51:10.780Z,17.52
2022-11-23T11:53:57.658Z,15.55
2022-11-23T11:59:18.030Z,15.63
2022-11-23T12:01:56.911Z,16.35
2022-11-23T12:04:52.473Z,14.27
2022-11-23T12:07:32.316Z,15.35
2022-11-23T12:10:07.050Z,20.98
2022-11-23T12:12:36.857Z,17.42
2022-11-23T12:15:20.488Z,19.85
2022-11-23T12:18:35.361Z,17.50
2022-11-23T12:21:36.669Z,24.95
2022-11-23T12:24:22.446Z,15.45
2022-11-23T12:27:02.642Z,19.58
2022-11-23T12:29:39.617Z,19.67
2022-11-23T12:32:36.802Z,12.57
2022-11-23T12:35:33.368Z,19.13
2022-11-23T12:38:24.049Z,18.92
2022-11-23T12:41:19.982Z,17.60
2022-11-23T12:44:04.062Z,21.38
2022-11-23T12:46:58.818Z,16.55
2022-11-23T12:49:29.385Z,15.05
2022-11-23T12:52:23.644Z,18.63
2022-11-23T12:55:19.865Z,18.48
2022-11-23T13:00:39.706Z,24.20
2022-11-23T13:03:57.770Z,21.67
2022-11-23T13:07:27.402Z,15.55
2022-11-23T13:09:55.555Z,18.27
2022-11-23T13:13:16.208Z,20.15
2022-11-23T13:16:00.371Z,21.80
2022-11-23T13:19:04.472Z,16.17
2022-11-23T13:21:35.246Z,24.27
2022-11-23T13:24:03.147Z,22.05
2022-11-23T13:26:34.058Z,20.23
2022-11-23T13:29:39.959Z,21.65
2022-11-23T13:32:52.469Z,20.48
2022-11-23T13:35:19.842Z,25.10
2022-11-23T13:40:25.853Z,22.23
2022-11-23T13:42:56.863Z,13.23
2022-11-23T13:45:28.656Z,17.38
2022-11-23T13:48:19.330Z,20.92
2022-11-23T13:51:00.995Z,21.92
2022-11-23T13:53:37.845Z,18.17
2022-11-23T13:56:30.800Z,19.77
2022-11-23T13:59:23.257Z,18.52
2022-11-23T14:02:09.543Z,13.50
2022-11-23T14:04:42.116Z,18.45
2022-11-23T14:07:25.604Z,20.55
2022-11-23T14:09:58.387Z,19.17
2022-11-23T14:12:43.550Z,18.40
2022-11-23T14:15:25.976Z,14.15
2022-11-23T14:18:05.690Z,20.90
2022-11-23T14:20:41.911Z,17.65
2022-11-23T14:23:37.271Z,23.53
2022-11-23T14:26:23.480Z,16.50
2022-11-23T14:29:09.150Z,20.20
2022-11-23T14:32:06.714Z,19.13
2022-11-23T14:35:11.080Z,19.05
2022-11-23T14:38:06.324Z,18.70
2022-11-23T14:40:49.136Z,23.20
2022-11-23T14:43:19.461Z,18.77
2022-11-23T14:45:47.918Z,25.10
2022-11-23T14:48:30.020Z,24.35
2022-11-23T14:51:05.396Z,19.17
2022-11-23T14:53:36.412Z,16.10
2022-11-23T14:56:04.042Z,16.85
2022-11-23T14:58:33.524Z,23.60
2022-11-23T15:01:02.463Z,17.45
2022-11-23T15:03:49.898Z,18.60
2022-11-23T15:06:22.517Z,21.95
2022-11-23T15:09:09.352Z,19.42
2022-11-23T15:11:38.266Z,24.25
2022-11-23T15:14:19.283Z,18.50
2022-11-23T15:16:47.722Z,15.75
2022-11-23T15:19:19.370Z,17.70
2022-11-23T15:21:47.439Z,17.52
2022-11-23T15:24:26.932Z,23.08
2022-11-23T15:27:09.519Z,22.88
2022-11-23T15:29:40.049Z,15.82
2022-11-23T15:32:34.401Z,23.80
2022-11-23T15:35:14.044Z,25.55
2022-11-23T15:37:45.048Z,23.35
2022-11-23T15:40:15.109Z,17.80
2022-11-23T15:42:44.558Z,21.80
2022-11-23T15:45:39.297Z,16.10
2022-11-23T15:48:11.180Z,23.05
2022-11-23T15:50:55.236Z,28.10
2022-11-23T15:53:27.196Z,27.98
2022-11-23T15:55:59.558Z,22.77
2022-11-23T15:58:28.276Z,25.60
2022-11-23T16:01:12.338Z,26.30
2022-11-23T16:03:39.730Z,24.30
2022-11-23T16:08:41.373Z,28.75
2022-11-23T16:11:32.398Z,19.70
2022-11-23T16:14:20.686Z,23.10
2022-11-23T16:16:58.439Z,25.35
2022-11-23T16:19:30.926Z,20.73
2022-11-23T16:22:04.567Z,12.45
2022-11-23T16:24:34.957Z,16.25
2022-11-23T16:27:12.752Z,15.93
2022-11-23T16:29:40.919Z,18.52
2022-11-23T16:32:30.064Z,15.50
2022-11-23T16:35:17.726Z,14.73
2022-11-23T16:37:45.575Z,21.42
2022-11-23T16:40:14.543Z,28.48
2022-11-23T16:42:42.388Z,29.77
2022-11-23T16:45:10.845Z,22.05
2022-11-23T16:47:55.142Z,27.08
2022-11-23T16:50:24.448Z,31.40
2022-11-23T16:52:52.309Z,27.52
2022-11-23T16:55:19.903Z,21.30
2022-11-23T16:57:48.660Z,25.80
2022-11-23T17:00:19.794Z,23.60
2022-11-23T17:02:47.436Z,25.60
2022-11-23T17:05:20.159Z,27.65
2022-11-23T17:07:47.771Z,21.85
2022-11-23T17:10:16.325Z,20.60
2022-11-23T17:12:51.490Z,25.00
2022-11-23T17:15:21.248Z,20.00
2022-11-23T17:17:48.797Z,22.15
2022-11-23T17:20:18.071Z,30.08
2022-11-23T17:22:45.648Z,20.58
2022-11-23T17:25:15.129Z,33.75
2022-11-23T17:27:46.270Z,24.35
2022-11-23T17:30:17.642Z,21.60
2022-11-23T17:32:47.068Z,23.52
2022-11-23T17:35:14.682Z,23.77
2022-11-23T17:37:42.877Z,23.15
2022-11-23T17:40:14.834Z,21.42
2022-11-23T17:42:42.423Z,24.40
2022-11-23T17:45:10.637Z,22.92
2022-11-23T17:47:39.379Z,31.38
2022-11-23T17:50:07.608Z,24.15
2022-11-23T17:52:35.060Z,30.27
2022-11-23T17:57:29.942Z,29.38
2022-11-23T18:00:01.872Z,24.63
2022-11-23T18:02:39.057Z,27.77
2022-11-23T18:07:34.142Z,32.30
2022-11-23T18:10:01.644Z,26.73
2022-11-23T18:14:56.333Z,23.02
2022-11-23T18:19:51.416Z,20.35
2022-11-23T18:24:46.545Z,26.20
2022-11-23T18:27:13.966Z,30.42
2022-11-23T18:29:41.572Z,32.53
2022-11-23T18:32:09.148Z,26.00
2022-11-23T18:34:36.706Z,28.10
2022-11-23T18:39:31.832Z,27.77
2022-11-23T18:42:05.326Z,28.80
2022-11-23T18:44:33.551Z,30.98
2022-11-23T18:47:00.979Z,26.50
2022-11-23T18:49:28.393Z,26.30
2022-11-23T18:54:23.253Z,32.53
2022-11-23T18:59:50.070Z,29.13
2022-11-23T19:02:09.075Z,23.27
2022-11-23T19:04:39.629Z,24.52
2022-11-23T19:07:07.380Z,25.42
2022-11-23T19:09:35.347Z,21.15
2022-11-23T19:12:03.140Z,26.42
2022-11-23T19:14:30.531Z,25.85
2022-11-23T19:19:25.097Z,22.50
2022-11-23T19:24:19.827Z,12.88
2022-11-23T19:26:47.347Z,20.60
2022-11-23T19:29:14.820Z,13.25
2022-11-23T19:31:42.493Z,12.68
2022-11-23T19:34:10.884Z,12.73
2022-11-23T19:36:38.515Z,15.35
2022-11-23T19:39:06.408Z,10.27
2022-11-23T19:41:33.933Z,17.38
2022-11-23T19:46:30.645Z,11.80
2022-11-23T19:48:58.790Z,6.72
2022-11-23T19:51:27.321Z,13.80
2022-11-23T19:53:57.243Z,10.98
2022-11-23T19:56:26.402Z,12.90
2022-11-23T19:58:55.405Z,15.07
2022-11-23T20:01:24.730Z,18.25
2022-11-23T20:03:54.992Z,14.02
2022-11-23T20:06:28.703Z,13.07
2022-11-23T20:08:57.997Z,12.68
2022-11-23T20:11:26.540Z,14.00
2022-11-23T20:13:55.043Z,11.88
2022-11-23T20:16:23.537Z,9.85
2022-11-23T20:18:57.339Z,16.27
2022-11-23T20:21:25.629Z,10.25
2022-11-23T20:24:17.618Z,11.85
2022-11-23T20:26:45.339Z,18.95
2022-11-23T20:29:14.210Z,15.57
2022-11-23T20:31:41.956Z,13.93
2022-11-23T20:34:13.150Z,15.50
2022-11-23T20:36:43.010Z,13.23
2022-11-23T20:41:38.929Z,11.90
2022-11-23T20:44:15.610Z,13.82
2022-11-23T20:49:31.558Z,15.93
2022-11-23T20:51:59.862Z,8.07
2022-11-23T20:54:27.489Z,14.70
2022-11-23T20:56:54.931Z,13.65
2022-11-23T20:59:24.034Z,19.15
2022-11-23T21:01:52.323Z,11.70
2022-11-23T21:04:19.858Z,14.43
2022-11-23T21:09:14.624Z,12.52
2022-11-23T21:14:30.598Z,10.98
2022-11-23T21:16:59.878Z,13.38
2022-11-23T21:19:39.255Z,10.57
2022-11-23T21:22:14.070Z,13.35
2022-11-23T21:24:42.082Z,9.40
2022-11-23T21:27:13.452Z,12.50
2022-11-23T21:29:41.200Z,10.40
2022-11-23T21:32:08.814Z,10.60
2022-11-23T21:34:36.669Z,15.23
2022-11-23T21:37:04.270Z,13.02
2022-11-23T21:39:32.141Z,13.82
2022-11-23T21:41:59.617Z,13.57
2022-11-23T21:44:27.086Z,12.05
2022-11-23T21:49:22.066Z,12.70
2022-11-23T21:51:49.444Z,15.23
2022-11-23T21:56:45.622Z,11.30
2022-11-23T21:59:13.986Z,10.32
2022-11-23T22:01:42.109Z,4.50
2022-11-23T22:04:15.831Z,9.10
2022-11-23T22:06:45.484Z,11.48
2022-11-23T22:09:13.510Z,7.22
2022-11-23T22:11:43.222Z,10.25
2022-11-23T22:14:13.260Z,12.40
2022-11-23T22:16:45.124Z,14.43
2022-11-23T22:19:14.761Z,10.75
2022-11-23T22:21:43.970Z,10.48
2022-11-23T22:24:16.982Z,12.57
2022-11-23T22:26:45.556Z,12.13
2022-11-23T22:29:13.343Z,14.60
2022-11-23T22:31:41.219Z,9.63
2022-11-23T22:34:12.172Z,13.63
2022-11-23T22:36:39.817Z,7.03
2022-11-23T22:39:08.259Z,14.40
2022-11-23T22:41:37.529Z,11.45
2022-11-23T22:44:09.962Z,15.75
2022-11-23T22:46:38.342Z,13.93
2022-11-23T22:49:05.944Z,11.25
2022-11-23T22:51:33.744Z,13.15
2022-11-23T22:54:01.746Z,9.80
2022-11-23T22:56:30.851Z,9.95
2022-11-23T22:58:58.940Z,11.35
2022-11-23T23:01:29.077Z,12.13
2022-11-23T23:03:58.340Z,7.88
2022-11-23T23:06:28.588Z,16.38
2022-11-23T23:08:59.738Z,6.97
2022-11-23T23:11:30.393Z,9.07
2022-11-23T23:13:58.337Z,12.75
2022-11-23T23:16:26.382Z,13.18
2022-11-23T23:18:57.989Z,9.77
2022-11-23T23:21:27.330Z,6.93
2022-11-23T23:23:57.849Z,10.15
2022-11-23T23:26:27.289Z,10.25
2022-11-23T23:28:59.713Z,8.73
2022-11-23T23:31:29.365Z,12.18
2022-11-23T23:33:57.219Z,12.52
2022-11-23T23:36:24.934Z,11.25
2022-11-23T23:38:52.508Z,10.32
2022-11-23T23:41:20.542Z,11.40
2022-11-23T23:43:51.074Z,12.75
2022-11-23T23:46:20.045Z,10.05
2022-11-23T23:48:47.536Z,12.38
2022-11-23T23:51:20.956Z,12.38
2022-11-23T23:53:50.720Z,11.32
2022-11-23T23:56:23.039Z,11.20
2022-11-23T23:58:51.016Z,9.50
